עמוד ראשי
METAR-TAF:

METAR-TAF

שדות תעופה :

Providenciales, איי טרקס וקייקוס

קו רוחב: 21-46-25N, קו אורך: 072-15-57W, גובה: 5מטר

תצפית מזג אוויר נוכחית

הדו"ח נערך לפני 5 שעות ו 7דקות, בשעה 19:00 UTC
רוח 5קשר מכיוון דרום-מזרח
טמפרטורת 30 צלסיוס
לחות 75%
לחץ 1014 hPa
ראות 10 קילומטר או יותר
עננים פזורים בגובה 1500רגל

METAR: MBPV 121900Z 13005KT 9999 SCT015 30/25 Q1014

זמן: 20:07 (00:07 UTC)

תחזית

הדו"ח נערך לפני 6 שעות ו 12דקות, בשעה 17:55 UTC
תחזית בתוקף מ 12 ב 18 UTC עד 13 ב 18 UTC
רוח 12קשר מכיוון מזרח/דרום-מזרח
ראות 10 קילומטר או יותר
עננים פזורים בגובה 1800רגל

TAF: MBPV 121755Z 1218/1318 11012KT 9999 SCT018

תצפיות ותחזיות מזג אוויר לגבי יותר מ- 4,000 שדות תעופה ברחבי העולם. דוחות METAR ו- TAF.

התחנות הזמינות מסומנות בנקודות צהובות ואדומות על גבי המפה.

העבר את העכבר לנקודה הצבעונית על מנת לראות את שם התחנה.

לאחר מכן, לחץ כדי לראות את תוכן ואת תחזיות מזג האוויר.

כדי לשנות את המפה: לחץ על הכפתורים הירוקים עם הפלוס השחור כדי להתקרב; על הכפתור הירוק עם המקף כדי להתרחק; או בחיצים הירוקים למפות סמוכות.


METAR-TAF: